createdAt,value
2022-10-02T00:02:16.721Z,9.72
2022-10-02T00:07:26.227Z,10.13
2022-10-02T00:12:32.155Z,10.09
2022-10-02T00:17:41.644Z,9.83
2022-10-02T00:22:51.326Z,9.75
2022-10-02T00:28:09.849Z,9.49
2022-10-02T00:33:26.396Z,9.42
2022-10-02T00:38:42.602Z,9.42
2022-10-02T00:43:57.410Z,9.86
2022-10-02T00:49:26.306Z,9.63
2022-10-02T00:55:00.352Z,9.75
2022-10-02T01:00:09.616Z,9.76
2022-10-02T01:05:15.612Z,9.75
2022-10-02T01:10:21.196Z,9.92
2022-10-02T01:15:31.965Z,9.78
2022-10-02T01:20:41.846Z,9.90
2022-10-02T01:25:47.231Z,9.81
2022-10-02T01:30:55.349Z,9.63
2022-10-02T01:35:59.473Z,9.91
2022-10-02T01:41:05.092Z,9.99
2022-10-02T01:46:29.006Z,9.73
2022-10-02T01:52:01.958Z,9.55
2022-10-02T01:57:17.545Z,9.58
2022-10-02T02:02:31.426Z,9.91
2022-10-02T02:07:48.143Z,10.14
2022-10-02T02:13:00.713Z,10.05
2022-10-02T02:18:12.066Z,10.01
2022-10-02T02:23:21.007Z,10.04
2022-10-02T02:28:28.457Z,10.02
2022-10-02T02:33:38.049Z,10.13
2022-10-02T02:38:45.692Z,9.92
2022-10-02T02:43:57.812Z,10.12
2022-10-02T02:49:06.159Z,9.92
2022-10-02T02:54:17.006Z,10.13
2022-10-02T02:59:27.363Z,10.01
2022-10-02T03:04:31.168Z,10.05
2022-10-02T03:09:35.663Z,10.29
2022-10-02T03:15:02.492Z,10.23
2022-10-02T03:20:11.719Z,10.04
2022-10-02T03:25:22.654Z,10.11
2022-10-02T03:30:29.354Z,9.80
2022-10-02T03:35:34.230Z,9.99
2022-10-02T03:40:38.101Z,9.99
2022-10-02T03:45:51.952Z,9.92
2022-10-02T03:50:56.018Z,10.10
2022-10-02T03:56:06.711Z,10.20
2022-10-02T04:01:18.211Z,9.93
2022-10-02T04:06:27.667Z,9.87
2022-10-02T04:11:36.305Z,9.96
2022-10-02T04:16:46.824Z,10.44
2022-10-02T04:21:56.772Z,10.29
2022-10-02T04:27:05.294Z,10.20
2022-10-02T04:32:15.463Z,10.28
2022-10-02T04:37:39.419Z,10.19
2022-10-02T04:42:52.723Z,10.28
2022-10-02T04:48:17.803Z,10.22
2022-10-02T04:53:51.986Z,10.11
2022-10-02T04:59:20.910Z,10.65
2022-10-02T05:04:54.097Z,10.54
2022-10-02T05:10:03.666Z,10.62
2022-10-02T05:15:33.724Z,10.62
2022-10-02T05:20:57.486Z,10.43
2022-10-02T05:26:27.190Z,10.65
2022-10-02T05:31:42.355Z,10.72
2022-10-02T05:37:06.725Z,10.41
2022-10-02T05:42:20.271Z,10.21
2022-10-02T05:47:29.412Z,10.57
2022-10-02T05:52:41.916Z,10.62
2022-10-02T05:57:49.925Z,10.17
2022-10-02T06:03:01.506Z,10.44
2022-10-02T06:08:11.121Z,10.46
2022-10-02T06:13:24.053Z,10.50
2022-10-02T06:18:33.335Z,10.36
2022-10-02T06:23:43.559Z,10.41
2022-10-02T06:28:53.193Z,10.17
2022-10-02T06:33:59.804Z,10.67
2022-10-02T06:39:26.090Z,10.41
2022-10-02T06:44:40.271Z,10.80
2022-10-02T06:49:56.776Z,10.74
2022-10-02T06:55:22.925Z,10.64
2022-10-02T07:00:27.070Z,10.98
2022-10-02T07:05:49.732Z,10.78
2022-10-02T07:11:04.482Z,11.25
2022-10-02T07:16:27.667Z,11.14
2022-10-02T07:21:41.188Z,11.37
2022-10-02T07:26:55.578Z,11.08
2022-10-02T07:32:42.763Z,11.96
2022-10-02T07:38:00.040Z,12.30
2022-10-02T07:43:15.259Z,11.73
2022-10-02T07:48:43.802Z,11.45
2022-10-02T07:53:55.226Z,11.87
2022-10-02T07:59:07.933Z,11.83
2022-10-02T08:04:15.150Z,12.17
2022-10-02T08:09:24.627Z,12.30
2022-10-02T08:14:38.322Z,12.38
2022-10-02T08:19:49.665Z,12.03
2022-10-02T08:24:57.420Z,12.42
2022-10-02T08:30:06.666Z,12.58
2022-10-02T08:35:14.325Z,13.48
2022-10-02T08:40:54.580Z,13.79
2022-10-02T08:46:41.213Z,13.46
2022-10-02T08:52:07.722Z,13.54
2022-10-02T08:57:47.690Z,13.71
2022-10-02T09:03:39.416Z,13.84
2022-10-02T09:09:16.739Z,13.19
2022-10-02T09:14:47.251Z,13.57
2022-10-02T09:20:07.410Z,13.42
2022-10-02T09:25:37.396Z,13.28
2022-10-02T09:31:20.441Z,13.19
2022-10-02T09:36:55.075Z,13.36
2022-10-02T09:42:36.022Z,13.72
2022-10-02T09:48:18.956Z,13.89
2022-10-02T09:54:02.767Z,14.42
2022-10-02T09:59:32.818Z,13.46
2022-10-02T10:05:07.376Z,13.66
2022-10-02T10:10:46.550Z,13.90
2022-10-02T10:16:21.289Z,14.07
2022-10-02T10:21:51.731Z,14.79
2022-10-02T10:27:18.273Z,14.07
2022-10-02T10:33:09.348Z,13.80
2022-10-02T10:38:39.825Z,13.83
2022-10-02T10:44:21.992Z,14.29
2022-10-02T10:50:02.349Z,14.28
2022-10-02T10:55:20.245Z,15.68
2022-10-02T11:00:26.541Z,15.70
2022-10-02T11:05:58.376Z,14.06
2022-10-02T11:11:13.545Z,13.24
2022-10-02T11:16:45.486Z,13.49
2022-10-02T11:22:14.785Z,14.23
2022-10-02T11:27:42.141Z,15.09
2022-10-02T11:33:05.431Z,15.36
2022-10-02T11:38:23.645Z,15.48
2022-10-02T11:43:43.906Z,15.89
2022-10-02T11:49:27.406Z,15.40
2022-10-02T11:54:56.827Z,14.98
2022-10-02T12:00:18.473Z,14.66
2022-10-02T12:05:44.810Z,14.62
2022-10-02T12:11:00.141Z,15.29
2022-10-02T12:16:11.352Z,16.12
2022-10-02T12:22:00.406Z,16.63
2022-10-02T12:27:15.167Z,15.00
2022-10-02T12:32:37.639Z,14.61
2022-10-02T12:37:47.209Z,16.72
2022-10-02T12:43:27.145Z,16.08
2022-10-02T12:49:06.976Z,15.46
2022-10-02T12:54:45.387Z,15.35
2022-10-02T13:00:01.835Z,14.87
2022-10-02T13:05:38.029Z,14.62
2022-10-02T13:10:48.267Z,15.97
2022-10-02T13:16:03.040Z,17.26
2022-10-02T13:21:17.313Z,18.22
2022-10-02T13:26:30.681Z,18.04
2022-10-02T13:31:49.771Z,15.48
2022-10-02T13:37:07.726Z,13.27
2022-10-02T13:42:29.124Z,13.49
2022-10-02T13:47:41.534Z,13.29
2022-10-02T13:53:02.343Z,12.51
2022-10-02T13:58:38.963Z,12.52
2022-10-02T14:04:19.558Z,11.48
2022-10-02T14:09:51.350Z,12.47
2022-10-02T14:15:07.552Z,13.18
2022-10-02T14:20:38.577Z,14.46
2022-10-02T14:26:06.931Z,14.92
2022-10-02T14:31:35.026Z,15.35
2022-10-02T14:36:48.953Z,15.10
2022-10-02T14:42:13.587Z,16.89
2022-10-02T14:47:35.439Z,15.52
2022-10-02T14:52:57.571Z,13.65
2022-10-02T14:58:17.716Z,13.47
2022-10-02T15:03:56.474Z,14.18
2022-10-02T15:09:07.786Z,14.25
2022-10-02T15:14:18.304Z,15.64
2022-10-02T15:19:27.054Z,16.25
2022-10-02T15:24:41.140Z,16.41
2022-10-02T15:30:01.217Z,15.24
2022-10-02T15:35:28.943Z,15.00
2022-10-02T15:40:42.802Z,14.02
2022-10-02T15:46:01.080Z,14.23
2022-10-02T15:51:17.809Z,14.62
2022-10-02T15:56:40.052Z,13.11
2022-10-02T16:01:56.415Z,12.66
2022-10-02T16:07:46.346Z,12.75
2022-10-02T16:13:08.757Z,12.85
2022-10-02T16:18:30.140Z,13.80
2022-10-02T16:24:10.963Z,13.74
2022-10-02T16:29:32.619Z,14.68
2022-10-02T16:34:44.242Z,13.66
2022-10-02T16:40:00.583Z,12.10
2022-10-02T16:45:31.308Z,11.40
2022-10-02T16:50:48.742Z,10.93
2022-10-02T16:55:59.547Z,11.95
2022-10-02T17:01:18.697Z,10.98
2022-10-02T17:06:30.324Z,11.34
2022-10-02T17:11:38.101Z,10.75
2022-10-02T17:16:53.262Z,10.74
2022-10-02T17:22:03.571Z,11.06
2022-10-02T17:27:17.155Z,11.29
2022-10-02T17:32:39.564Z,11.31
2022-10-02T17:37:57.437Z,11.39
2022-10-02T17:43:10.282Z,10.93
2022-10-02T17:48:28.904Z,11.52
2022-10-02T17:54:15.566Z,10.72
2022-10-02T17:59:33.569Z,10.34
2022-10-02T18:04:50.919Z,10.55
2022-10-02T18:10:04.574Z,10.44
2022-10-02T18:15:29.873Z,10.99
2022-10-02T18:20:37.569Z,10.55
2022-10-02T18:25:53.030Z,10.57
2022-10-02T18:31:07.590Z,10.72
2022-10-02T18:36:26.781Z,10.83
2022-10-02T18:41:50.300Z,10.66
2022-10-02T18:47:04.927Z,10.66
2022-10-02T18:52:38.572Z,10.56
2022-10-02T18:57:53.092Z,10.42
2022-10-02T19:03:27.109Z,10.49
2022-10-02T19:09:12.863Z,10.85
2022-10-02T19:14:22.933Z,10.72
2022-10-02T19:19:28.481Z,10.93
2022-10-02T19:24:38.918Z,10.39
2022-10-02T19:29:48.673Z,10.94
2022-10-02T19:35:02.182Z,10.32
2022-10-02T19:40:16.797Z,10.48
2022-10-02T19:45:26.801Z,10.23
2022-10-02T19:50:41.038Z,10.80
2022-10-02T19:55:50.721Z,10.88
2022-10-02T20:00:56.321Z,11.32
2022-10-02T20:06:01.675Z,10.94
2022-10-02T20:11:12.118Z,10.84
2022-10-02T20:16:37.860Z,10.70
2022-10-02T20:21:43.970Z,10.56
2022-10-02T20:26:51.837Z,10.70
2022-10-02T20:32:00.168Z,10.59
2022-10-02T20:37:09.039Z,10.88
2022-10-02T20:42:20.028Z,10.66
2022-10-02T20:47:44.554Z,10.31
2022-10-02T20:53:26.910Z,10.26
2022-10-02T20:58:53.122Z,10.38
2022-10-02T21:04:19.335Z,10.52
2022-10-02T21:10:08.598Z,10.55
2022-10-02T21:15:58.951Z,10.69
2022-10-02T21:21:23.012Z,10.77
2022-10-02T21:27:00.405Z,10.89
2022-10-02T21:32:51.548Z,10.70
2022-10-02T21:38:19.144Z,10.72
2022-10-02T21:44:09.091Z,10.50
2022-10-02T21:49:45.273Z,10.55
2022-10-02T21:55:32.683Z,10.60
2022-10-02T22:00:56.450Z,10.31
2022-10-02T22:06:26.875Z,10.60
2022-10-02T22:11:40.782Z,10.33
2022-10-02T22:16:55.225Z,10.58
2022-10-02T22:22:13.643Z,10.73
2022-10-02T22:27:41.502Z,10.12
2022-10-02T22:33:18.686Z,10.35
2022-10-02T22:38:27.418Z,10.15
2022-10-02T22:43:43.141Z,9.97
2022-10-02T22:48:51.580Z,9.88
2022-10-02T22:54:03.707Z,10.07
2022-10-02T22:59:14.371Z,9.74
2022-10-02T23:04:27.273Z,9.88
2022-10-02T23:09:40.714Z,10.24
2022-10-02T23:14:57.321Z,9.98
2022-10-02T23:20:08.211Z,10.27
2022-10-02T23:25:20.677Z,10.62
2022-10-02T23:30:26.340Z,10.28
2022-10-02T23:35:37.152Z,10.26
2022-10-02T23:41:17.839Z,10.02
2022-10-02T23:46:29.968Z,10.61
2022-10-02T23:51:46.666Z,10.37
2022-10-02T23:57:07.319Z,11.16
